San Pedro, Belize

3:14 PM CST on August 29, 2015 (GMT -0600)
Blake St. San Pedro | | Change Station
CLOSE
Current Station
Personal Weather Station
Location: San Pedro,
Elevation: 10 ft
Nearby Weather Stations

Elev 10 ft 17.91 °N, 87.97 °W | Updated 4 seconds ago

Partly Cloudy
Partly Cloudy
87.5 °F
Feels Like 99 °F
N
13.1
Wind Variable Wind from ENE
Gusts 13.1 mph

Today
High -- | Low -- °F
--% Chance of Precip.
Yesterday
High -- | Low -- °F
Precip. -- in
5:37 AM 6:08 PM
Full, 100% visible
Pressure 29.87 in
Visibility 6.2 miles
Clouds Few 2300 ft
Heat Index 99 °F
Dew Point 77 °F
Humidity 71%
Rainfall 0.00 in
Snow Depth Not available.
UV 8 out of 12
Pollen Not available.
Air Quality Not available.
Flu Activity Not available.
METAR MZBZ 292100Z 10008KT 9999 FEW023 32/25 A2987 Q1011 NOSIG
Pressure 29.87 in
Visibility 6.2 miles
Clouds Few 2300 ft
Heat Index 99 °F
Dew Point 77 °F
Humidity 71%
Rainfall 0.00 in
Snow Depth Not available.
UV 8 out of 12
Pollen Not available.
Air Quality Not available.
Flu Activity Not available.
METAR MZBZ 292100Z 10008KT 9999 FEW023 32/25 A2987 Q1011 NOSIG

10-Day Weather Forecast

×

Almanac

Astronomy

Aug. 29, 2015 Rise Set
Actual Time
Civil Twilight
Nautical Twilight
Astronomical Twilight
Moon
Length of Visible Light
Length of Day
Tomorrow will be .
, % of the Moon is Illuminated

Today's Extremes

Country Highs Country Lows

Community

WunderPhotos

Upload Photos

1,850,802 photos uploaded!

WunderBlogs® & News

Nearby

Air Quality

  Air Quality AQ Index Pollutant
Not available.

Snow Depth

Station Depth Elevation

Earthquake Activity

City Distance Mag. Time & Date
Minimum magnitude displayed is 2.5.

Coastal Water Temperatures

Place Temperature

Stations

Nearby Weather Stations

Station Location Temp. Windchill Dew Point Humidity Wind Precip. Elev Updated Type